createdAt,value
2023-07-20T00:01:10.301Z,22.81
2023-07-20T00:03:37.500Z,22.84
2023-07-20T00:06:05.489Z,22.86
2023-07-20T00:08:32.748Z,22.86
2023-07-20T00:10:59.730Z,22.87
2023-07-20T00:13:27.124Z,22.84
2023-07-20T00:15:54.505Z,22.85
2023-07-20T00:18:22.481Z,22.90
2023-07-20T00:20:49.495Z,22.93
2023-07-20T00:23:16.785Z,22.91
2023-07-20T00:25:43.788Z,22.85
2023-07-20T00:28:11.115Z,22.77
2023-07-20T00:30:39.617Z,22.73
2023-07-20T00:33:12.616Z,22.69
2023-07-20T00:35:40.678Z,22.71
2023-07-20T00:38:08.242Z,22.68
2023-07-20T00:40:39.738Z,22.64
2023-07-20T00:43:07.627Z,22.62
2023-07-20T00:45:36.065Z,22.62
2023-07-20T00:48:06.197Z,22.62
2023-07-20T00:50:34.835Z,22.59
2023-07-20T00:53:08.778Z,22.60
2023-07-20T00:55:37.253Z,22.61
2023-07-20T00:58:06.042Z,22.61
2023-07-20T01:00:33.138Z,22.58
2023-07-20T01:03:00.510Z,22.55
2023-07-20T01:05:52.856Z,22.54
2023-07-20T01:08:37.592Z,22.46
2023-07-20T01:11:40.623Z,22.53
2023-07-20T01:14:08.526Z,22.50
2023-07-20T01:16:35.554Z,22.50
2023-07-20T01:19:02.942Z,22.49
2023-07-20T01:21:43.930Z,22.49
2023-07-20T01:24:54.620Z,22.47
2023-07-20T01:27:28.149Z,22.46
2023-07-20T01:30:13.260Z,22.44
2023-07-20T01:32:44.547Z,22.45
2023-07-20T01:35:16.567Z,22.41
2023-07-20T01:37:47.863Z,22.48
2023-07-20T01:40:16.903Z,22.48
2023-07-20T01:42:48.602Z,22.45
2023-07-20T01:45:16.034Z,22.47
2023-07-20T01:47:43.947Z,22.46
2023-07-20T01:50:11.594Z,22.43
2023-07-20T01:52:38.572Z,22.41
2023-07-20T01:55:06.668Z,22.37
2023-07-20T01:57:33.565Z,22.36
2023-07-20T02:00:00.993Z,22.31
2023-07-20T02:02:29.554Z,22.32
2023-07-20T02:04:57.101Z,22.17
2023-07-20T02:07:24.296Z,22.18
2023-07-20T02:09:51.684Z,22.18
2023-07-20T02:12:18.631Z,22.17
2023-07-20T02:14:46.030Z,22.18
2023-07-20T02:17:13.067Z,22.17
2023-07-20T02:19:42.339Z,22.13
2023-07-20T02:22:09.426Z,22.14
2023-07-20T02:24:36.771Z,22.16
2023-07-20T02:27:04.399Z,22.17
2023-07-20T02:29:31.578Z,22.16
2023-07-20T02:31:58.472Z,22.16
2023-07-20T02:34:25.768Z,22.14
2023-07-20T02:36:53.218Z,22.14
2023-07-20T02:39:20.396Z,22.06
2023-07-20T02:41:47.696Z,22.04
2023-07-20T02:44:18.041Z,22.02
2023-07-20T02:46:45.045Z,22.01
2023-07-20T02:49:12.371Z,22.03
2023-07-20T02:51:39.474Z,21.99
2023-07-20T02:54:06.738Z,21.95
2023-07-20T02:56:33.614Z,21.88
2023-07-20T02:59:02.834Z,21.87
2023-07-20T03:01:30.435Z,21.82
2023-07-20T03:03:58.018Z,21.79
2023-07-20T03:06:25.437Z,21.77
2023-07-20T03:08:54.532Z,21.77
2023-07-20T03:11:22.062Z,21.77
2023-07-20T03:13:49.563Z,21.78
2023-07-20T03:16:21.079Z,21.75
2023-07-20T03:18:48.805Z,21.72
2023-07-20T03:21:16.016Z,21.73
2023-07-20T03:23:43.608Z,21.71
2023-07-20T03:26:10.900Z,21.73
2023-07-20T03:28:39.812Z,21.71
2023-07-20T03:31:07.094Z,21.70
2023-07-20T03:33:36.174Z,21.72
2023-07-20T03:36:03.260Z,21.69
2023-07-20T03:38:30.614Z,21.67
2023-07-20T03:41:42.479Z,21.68
2023-07-20T03:44:09.822Z,21.68
2023-07-20T03:46:36.737Z,21.67
2023-07-20T03:49:04.582Z,21.65
2023-07-20T03:51:31.580Z,21.63
2023-07-20T03:53:59.083Z,21.62
2023-07-20T03:56:26.028Z,21.63
2023-07-20T03:58:53.220Z,21.65
2023-07-20T04:01:20.306Z,21.65
2023-07-20T04:03:50.017Z,21.65
2023-07-20T04:06:57.334Z,21.66
2023-07-20T04:09:24.654Z,21.67
2023-07-20T04:11:51.724Z,21.68
2023-07-20T04:14:18.920Z,21.70
2023-07-20T04:16:48.574Z,21.71
2023-07-20T04:19:15.795Z,21.74
2023-07-20T04:21:43.268Z,21.69
2023-07-20T04:24:10.536Z,21.70
2023-07-20T04:26:38.409Z,21.74
2023-07-20T04:29:05.846Z,21.72
2023-07-20T04:31:34.578Z,21.71
2023-07-20T04:34:02.314Z,21.70
2023-07-20T04:36:29.418Z,21.65
2023-07-20T04:38:56.652Z,21.66
2023-07-20T04:41:23.691Z,21.66
2023-07-20T04:43:50.904Z,21.68
2023-07-20T04:46:19.447Z,21.68
2023-07-20T04:48:46.739Z,21.69
2023-07-20T04:51:13.693Z,21.68
2023-07-20T04:53:40.959Z,21.69
2023-07-20T04:56:07.837Z,21.66
2023-07-20T04:58:35.274Z,21.65
2023-07-20T05:01:02.230Z,21.64
2023-07-20T05:03:29.637Z,21.63
2023-07-20T05:05:56.789Z,21.66
2023-07-20T05:08:24.070Z,21.69
2023-07-20T05:10:51.140Z,21.64
2023-07-20T05:13:18.427Z,21.67
2023-07-20T05:15:45.398Z,21.70
2023-07-20T05:18:12.704Z,21.71
2023-07-20T05:20:39.781Z,21.72
2023-07-20T05:23:07.149Z,21.75
2023-07-20T05:25:34.182Z,21.79
2023-07-20T05:28:01.473Z,21.75
2023-07-20T05:30:30.421Z,21.72
2023-07-20T05:32:57.912Z,21.70
2023-07-20T05:35:25.240Z,21.69
2023-07-20T05:37:52.523Z,21.65
2023-07-20T05:40:20.720Z,21.72
2023-07-20T05:42:53.339Z,21.82
2023-07-20T05:45:21.289Z,21.95
2023-07-20T05:47:48.646Z,22.04
2023-07-20T05:50:15.958Z,22.03
2023-07-20T05:52:43.317Z,21.98
2023-07-20T05:55:10.372Z,21.96
2023-07-20T05:57:40.792Z,21.97
2023-07-20T06:00:09.147Z,22.00
2023-07-20T06:02:36.578Z,22.04
2023-07-20T06:05:03.703Z,22.16
2023-07-20T06:07:30.926Z,22.21
2023-07-20T06:09:59.444Z,22.35
2023-07-20T06:12:26.791Z,22.45
2023-07-20T06:14:53.743Z,22.51
2023-07-20T06:17:21.199Z,22.59
2023-07-20T06:19:48.382Z,22.68
2023-07-20T06:22:15.695Z,22.69
2023-07-20T06:24:42.659Z,22.77
2023-07-20T06:27:09.944Z,22.79
2023-07-20T06:29:43.028Z,22.79
2023-07-20T06:32:10.356Z,22.81
2023-07-20T06:34:39.254Z,22.83
2023-07-20T06:37:06.566Z,22.86
2023-07-20T06:42:03.766Z,22.98
2023-07-20T06:44:30.727Z,22.98
2023-07-20T06:46:57.982Z,22.96
2023-07-20T06:49:27.417Z,22.97
2023-07-20T06:51:55.298Z,23.00
2023-07-20T06:54:24.081Z,23.08
2023-07-20T06:59:22.624Z,23.15
2023-07-20T07:01:50.059Z,23.11
2023-07-20T07:04:17.159Z,23.08
2023-07-20T07:06:45.559Z,23.01
2023-07-20T07:09:12.553Z,22.99
2023-07-20T07:11:39.926Z,22.91
2023-07-20T07:14:08.639Z,22.95
2023-07-20T07:16:39.420Z,22.95
2023-07-20T07:19:06.831Z,22.94
2023-07-20T07:21:34.338Z,22.91
2023-07-20T07:24:01.318Z,22.94
2023-07-20T07:26:28.609Z,22.93
2023-07-20T07:28:55.525Z,22.90
2023-07-20T07:31:31.642Z,22.95
2023-07-20T07:34:06.175Z,23.04
2023-07-20T07:36:34.055Z,23.07
2023-07-20T07:41:31.303Z,23.24
2023-07-20T07:44:36.634Z,23.29
2023-07-20T07:47:04.296Z,23.39
2023-07-20T07:49:32.591Z,23.41
2023-07-20T07:51:59.922Z,23.45
2023-07-20T07:54:26.865Z,23.49
2023-07-20T07:56:54.230Z,23.49
2023-07-20T07:59:42.483Z,23.54
2023-07-20T08:02:10.506Z,23.64
2023-07-20T08:04:38.414Z,23.71
2023-07-20T08:07:56.803Z,23.71
2023-07-20T08:10:24.470Z,23.79
2023-07-20T08:14:10.059Z,23.86
2023-07-20T08:17:25.833Z,23.94
2023-07-20T08:19:53.186Z,23.96
2023-07-20T08:26:00.591Z,23.93
2023-07-20T08:28:28.069Z,23.84
2023-07-20T08:31:25.581Z,23.87
2023-07-20T08:33:52.885Z,23.99
2023-07-20T08:36:22.192Z,24.06
2023-07-20T08:39:51.086Z,24.02
2023-07-20T08:42:19.546Z,24.06
2023-07-20T08:45:21.921Z,24.17
2023-07-20T08:48:44.662Z,24.12
2023-07-20T08:51:44.647Z,23.94
2023-07-20T08:54:16.954Z,23.84
2023-07-20T08:56:48.628Z,23.80
2023-07-20T08:59:23.683Z,23.93
2023-07-20T09:01:55.764Z,24.10
2023-07-20T09:04:24.077Z,24.25
2023-07-20T09:06:52.886Z,24.25
2023-07-20T09:09:20.899Z,24.23
2023-07-20T09:11:52.018Z,24.23
2023-07-20T09:14:20.750Z,24.23
2023-07-20T09:16:51.545Z,24.29
2023-07-20T09:19:20.094Z,24.24
2023-07-20T09:21:53.648Z,24.12
2023-07-20T09:24:22.005Z,24.07
2023-07-20T09:26:50.228Z,24.11
2023-07-20T09:29:21.129Z,24.06
2023-07-20T09:32:05.595Z,24.09
2023-07-20T09:37:06.720Z,24.14
2023-07-20T09:40:15.630Z,24.22
2023-07-20T09:45:00.636Z,24.40
2023-07-20T09:47:29.594Z,24.57
2023-07-20T09:50:36.274Z,24.68
2023-07-20T09:55:36.099Z,24.77
2023-07-20T09:58:04.222Z,24.62
2023-07-20T10:03:08.414Z,24.58
2023-07-20T10:05:41.299Z,24.65
2023-07-20T10:10:44.848Z,24.72
2023-07-20T10:13:28.340Z,24.73
2023-07-20T10:16:03.988Z,24.81
2023-07-20T10:19:18.009Z,24.85
2023-07-20T10:22:47.076Z,24.94
2023-07-20T10:25:15.815Z,24.96
2023-07-20T10:27:44.364Z,24.94
2023-07-20T10:30:12.664Z,25.05
2023-07-20T10:32:43.482Z,25.08
2023-07-20T10:35:16.444Z,25.26
2023-07-20T10:37:58.095Z,25.35
2023-07-20T10:40:27.281Z,25.41
2023-07-20T10:43:11.361Z,25.42
2023-07-20T10:45:49.661Z,25.45
2023-07-20T10:48:24.219Z,25.45
2023-07-20T10:51:17.534Z,25.43
2023-07-20T10:53:44.880Z,25.40
2023-07-20T10:56:22.265Z,25.43
2023-07-20T10:58:50.112Z,25.38
2023-07-20T11:01:20.390Z,25.36
2023-07-20T11:03:54.010Z,25.40
2023-07-20T11:06:27.469Z,25.44
2023-07-20T11:09:16.073Z,25.55
2023-07-20T11:11:48.998Z,25.68
2023-07-20T11:14:26.199Z,25.64
2023-07-20T11:16:56.139Z,25.57
2023-07-20T11:22:04.277Z,25.70
2023-07-20T11:24:33.122Z,25.74
2023-07-20T11:27:02.495Z,25.75
2023-07-20T11:29:34.113Z,25.70
2023-07-20T11:32:07.120Z,25.77
2023-07-20T11:34:36.423Z,25.83
2023-07-20T11:39:37.058Z,25.90
2023-07-20T11:42:04.668Z,25.96
2023-07-20T11:44:32.178Z,26.08
2023-07-20T11:47:11.988Z,26.10
2023-07-20T11:49:43.124Z,25.95
2023-07-20T11:52:18.007Z,25.91
2023-07-20T11:54:49.328Z,25.79
2023-07-20T11:57:21.518Z,25.84
2023-07-20T11:59:58.716Z,25.83
2023-07-20T12:02:29.436Z,25.83
2023-07-20T12:04:58.537Z,25.84
2023-07-20T12:07:41.544Z,25.98
2023-07-20T12:10:12.462Z,26.11
2023-07-20T12:12:45.320Z,26.05
2023-07-20T12:15:24.151Z,26.07
2023-07-20T12:18:26.529Z,26.05
2023-07-20T12:21:12.134Z,26.06
2023-07-20T12:23:41.437Z,26.09
2023-07-20T12:26:12.141Z,26.05
2023-07-20T12:29:14.362Z,25.97
2023-07-20T12:32:06.685Z,25.99
2023-07-20T12:34:34.161Z,26.02
2023-07-20T12:37:06.001Z,26.01
2023-07-20T12:39:34.083Z,25.99
2023-07-20T12:42:01.171Z,25.98
2023-07-20T12:44:28.443Z,26.04
2023-07-20T12:47:13.244Z,25.92
2023-07-20T12:49:52.879Z,25.90
2023-07-20T12:52:19.884Z,25.93
2023-07-20T12:54:47.082Z,25.96
2023-07-20T12:57:14.019Z,25.96
2023-07-20T13:00:26.279Z,26.05
2023-07-20T13:03:09.113Z,26.09
2023-07-20T13:08:23.813Z,26.28
2023-07-20T13:11:06.187Z,26.35
2023-07-20T13:13:35.592Z,26.24
2023-07-20T13:17:00.544Z,26.21
2023-07-20T13:19:30.780Z,26.26
2023-07-20T13:22:02.050Z,26.19
2023-07-20T13:25:16.780Z,26.19
2023-07-20T13:27:44.883Z,26.21
2023-07-20T13:30:17.777Z,26.19
2023-07-20T13:32:45.843Z,26.19
2023-07-20T13:35:13.607Z,26.23
2023-07-20T13:37:41.470Z,26.27
2023-07-20T13:40:42.126Z,26.30
2023-07-20T13:44:00.251Z,26.40
2023-07-20T13:49:36.512Z,26.69
2023-07-20T13:57:55.915Z,26.76
2023-07-20T14:01:13.692Z,26.73
2023-07-20T14:08:47.728Z,27.03
2023-07-20T14:13:47.941Z,26.99
2023-07-20T14:16:15.756Z,27.11
2023-07-20T14:21:29.892Z,26.95
2023-07-20T14:24:35.598Z,26.73
2023-07-20T14:27:22.347Z,26.72
2023-07-20T14:29:49.539Z,26.86
2023-07-20T14:32:25.799Z,26.95
2023-07-20T14:35:50.053Z,27.04
2023-07-20T14:38:17.520Z,27.04
2023-07-20T14:40:45.934Z,26.98
2023-07-20T14:43:15.160Z,26.90
2023-07-20T14:46:25.145Z,26.94
2023-07-20T14:48:53.229Z,26.95
2023-07-20T14:51:20.736Z,26.94
2023-07-20T14:53:47.999Z,27.05
2023-07-20T14:56:15.004Z,26.97
2023-07-20T14:58:42.237Z,26.80
2023-07-20T15:01:09.247Z,26.58
2023-07-20T15:04:07.199Z,26.63
2023-07-20T15:06:34.177Z,25.99
2023-07-20T15:09:02.121Z,25.51
2023-07-20T15:12:24.818Z,25.35
2023-07-20T15:16:00.181Z,25.47
2023-07-20T15:18:41.485Z,25.55
2023-07-20T15:21:57.838Z,25.61
2023-07-20T15:24:27.195Z,25.77
2023-07-20T15:26:54.190Z,25.76
2023-07-20T15:30:08.650Z,25.70
2023-07-20T15:35:21.549Z,25.89
2023-07-20T15:38:43.480Z,25.72
2023-07-20T15:41:14.802Z,25.87
2023-07-20T15:44:38.935Z,26.08
2023-07-20T15:47:09.232Z,26.31
2023-07-20T15:49:37.974Z,26.55
2023-07-20T15:52:08.081Z,26.43
2023-07-20T15:54:35.381Z,26.54
2023-07-20T15:57:02.576Z,26.57
2023-07-20T15:59:54.980Z,26.66
2023-07-20T16:02:22.762Z,26.61
2023-07-20T16:04:53.828Z,26.54
2023-07-20T16:07:21.422Z,26.71
2023-07-20T16:09:48.375Z,26.81
2023-07-20T16:12:15.597Z,26.92
2023-07-20T16:15:15.389Z,27.00
2023-07-20T16:17:46.752Z,27.05
2023-07-20T16:20:13.872Z,26.76
2023-07-20T16:22:41.216Z,26.67
2023-07-20T16:25:21.098Z,26.36
2023-07-20T16:28:40.186Z,26.12
2023-07-20T16:37:34.999Z,25.66
2023-07-20T16:45:36.176Z,25.26
2023-07-20T16:48:04.353Z,25.18
2023-07-20T16:50:31.978Z,25.18
2023-07-20T16:53:35.664Z,25.12
2023-07-20T16:56:12.881Z,25.23
2023-07-20T16:58:42.483Z,25.26
2023-07-20T17:01:09.664Z,25.23
2023-07-20T17:03:37.144Z,25.16
2023-07-20T17:06:06.765Z,25.09
2023-07-20T17:08:34.908Z,25.04
2023-07-20T17:11:41.437Z,25.00
2023-07-20T17:14:18.992Z,24.81
2023-07-20T17:17:23.590Z,24.72
2023-07-20T17:31:52.461Z,24.66
2023-07-20T17:34:19.746Z,24.62
2023-07-20T17:39:17.120Z,24.54
2023-07-20T17:41:46.881Z,24.52
2023-07-20T17:44:49.294Z,24.49
2023-07-20T17:47:22.721Z,24.49
2023-07-20T17:49:49.988Z,24.49
2023-07-20T17:53:11.217Z,24.50
2023-07-20T17:55:39.321Z,24.50
2023-07-20T17:58:06.278Z,24.44
2023-07-20T18:03:03.843Z,24.43
2023-07-20T18:05:32.613Z,24.36
2023-07-20T18:07:59.631Z,24.33
2023-07-20T18:10:27.062Z,24.33
2023-07-20T18:12:54.319Z,24.30
2023-07-20T18:15:21.754Z,24.28
2023-07-20T18:17:48.902Z,24.26
2023-07-20T18:20:57.691Z,24.14
2023-07-20T18:26:49.116Z,24.14
2023-07-20T18:29:16.018Z,24.12
2023-07-20T18:32:32.263Z,24.12
2023-07-20T18:34:59.277Z,24.16
2023-07-20T18:37:26.723Z,24.09
2023-07-20T18:39:53.696Z,24.05
2023-07-20T18:42:21.332Z,23.99
2023-07-20T18:45:34.035Z,24.03
2023-07-20T18:48:01.546Z,24.02
2023-07-20T18:50:30.453Z,24.04
2023-07-20T18:53:01.460Z,24.00
2023-07-20T18:55:28.926Z,23.97
2023-07-20T18:57:56.153Z,23.94
2023-07-20T19:00:23.854Z,23.92
2023-07-20T19:02:51.562Z,23.94
2023-07-20T19:05:19.067Z,23.94
2023-07-20T19:07:53.137Z,23.91
2023-07-20T19:10:20.250Z,23.91
2023-07-20T19:12:47.469Z,23.91
2023-07-20T19:16:11.702Z,23.87
2023-07-20T19:18:40.457Z,23.80
2023-07-20T19:21:08.683Z,23.74
2023-07-20T19:24:17.438Z,23.75
2023-07-20T19:26:46.860Z,23.71
2023-07-20T19:30:09.380Z,23.64
2023-07-20T19:32:37.573Z,23.67
2023-07-20T19:35:06.318Z,23.59
2023-07-20T19:37:33.450Z,23.58
2023-07-20T19:40:36.782Z,23.49
2023-07-20T19:43:08.258Z,23.46
2023-07-20T19:45:35.584Z,23.41
2023-07-20T19:48:07.596Z,23.36
2023-07-20T19:50:37.609Z,23.32
2023-07-20T19:55:59.025Z,23.26
2023-07-20T19:58:30.246Z,23.25
2023-07-20T20:06:52.246Z,23.09
2023-07-20T20:09:38.021Z,23.10
2023-07-20T20:12:09.411Z,23.08
2023-07-20T20:14:36.605Z,23.02
2023-07-20T20:17:04.774Z,22.87
2023-07-20T20:19:32.091Z,22.85
2023-07-20T20:22:02.071Z,22.85
2023-07-20T20:24:29.216Z,22.84
2023-07-20T20:27:38.883Z,22.86
2023-07-20T20:30:13.908Z,22.82
2023-07-20T20:32:43.304Z,22.77
2023-07-20T20:35:11.412Z,22.73
2023-07-20T20:37:38.707Z,22.78
2023-07-20T20:40:07.300Z,22.80
2023-07-20T20:42:34.547Z,22.84
2023-07-20T20:45:01.726Z,22.87
2023-07-20T20:47:30.696Z,22.84
2023-07-20T20:50:02.444Z,22.87
2023-07-20T20:52:29.771Z,22.82
2023-07-20T20:54:56.927Z,22.80
2023-07-20T20:57:24.226Z,22.78
2023-07-20T20:59:51.437Z,22.73
2023-07-20T21:02:21.400Z,22.70
2023-07-20T21:04:49.831Z,22.61
2023-07-20T21:07:17.093Z,22.60
2023-07-20T21:09:45.273Z,22.61
2023-07-20T21:12:12.915Z,22.60
2023-07-20T21:14:39.881Z,22.59
2023-07-20T21:17:07.116Z,22.58
2023-07-20T21:19:34.136Z,22.50
2023-07-20T21:22:01.378Z,22.50
2023-07-20T21:24:28.374Z,22.45
2023-07-20T21:26:55.686Z,22.44
2023-07-20T21:29:23.664Z,22.44
2023-07-20T21:31:50.865Z,22.46
2023-07-20T21:34:17.838Z,22.43
2023-07-20T21:36:46.339Z,22.40
2023-07-20T21:39:13.338Z,22.40
2023-07-20T21:41:40.755Z,22.43
2023-07-20T21:44:07.743Z,22.42
2023-07-20T21:46:35.370Z,22.34
2023-07-20T21:49:03.756Z,22.30
2023-07-20T21:51:31.151Z,22.25
2023-07-20T21:53:58.118Z,22.26
2023-07-20T21:56:25.465Z,22.24
2023-07-20T21:58:53.043Z,22.24
2023-07-20T22:01:52.726Z,22.18
2023-07-20T22:04:09.786Z,22.14
2023-07-20T22:06:37.906Z,22.14
2023-07-20T22:09:05.621Z,22.12
2023-07-20T22:11:34.776Z,22.09
2023-07-20T22:14:02.050Z,22.09
2023-07-20T22:16:29.399Z,22.05
2023-07-20T22:18:56.488Z,22.05
2023-07-20T22:21:23.810Z,22.02
2023-07-20T22:23:51.120Z,21.96
2023-07-20T22:26:18.445Z,21.97
2023-07-20T22:28:45.366Z,21.95
2023-07-20T22:31:13.110Z,21.91
2023-07-20T22:33:40.244Z,21.87
2023-07-20T22:36:07.540Z,21.82
2023-07-20T22:38:34.483Z,21.81
2023-07-20T22:41:02.022Z,21.80
2023-07-20T22:43:29.452Z,21.77
2023-07-20T22:45:56.825Z,21.77
2023-07-20T22:48:26.686Z,21.80
2023-07-20T22:50:55.005Z,21.83
2023-07-20T22:53:23.150Z,21.83
2023-07-20T22:55:50.668Z,21.82
2023-07-20T22:58:17.615Z,21.86
2023-07-20T23:00:46.566Z,21.89
2023-07-20T23:03:13.918Z,21.89
2023-07-20T23:05:40.920Z,21.86
2023-07-20T23:08:08.093Z,21.85
2023-07-20T23:10:35.163Z,21.84
2023-07-20T23:13:03.842Z,21.84
2023-07-20T23:15:30.896Z,21.86
2023-07-20T23:17:58.182Z,21.85
2023-07-20T23:20:29.313Z,21.80
2023-07-20T23:22:57.181Z,21.77
2023-07-20T23:25:24.268Z,21.70
2023-07-20T23:27:51.936Z,21.65
2023-07-20T23:30:19.415Z,21.65
2023-07-20T23:32:48.331Z,21.63
2023-07-20T23:35:16.225Z,21.54
2023-07-20T23:37:43.724Z,21.53
2023-07-20T23:40:15.622Z,21.49
2023-07-20T23:42:43.844Z,21.38
2023-07-20T23:45:12.718Z,21.32
2023-07-20T23:47:40.021Z,21.27
2023-07-20T23:50:10.333Z,21.28
2023-07-20T23:52:38.243Z,21.26
2023-07-20T23:55:10.276Z,21.27
2023-07-20T23:57:39.125Z,21.23
